Date,TemperatureHighF,TemperatureAvgF,TemperatureLowF,DewpointHighF,DewpointAvgF,DewpointLowF,HumidityHigh,HumidityAvg,HumidityLow,PressureMaxIn,PressureMinIn,WindSpeedMaxMPH,WindSpeedAvgMPH,GustSpeedMaxMPH,PrecipitationSumIn
2013-1-1,34.5,29.3,24.1,28.2,24.0,19.8,94,81,67,28.80,28.56,19,7,19,0.00
2013-1-2,47.5,31.4,18.7,28.4,23.9,17.2,96,77,38,28.85,28.70,15,5,15,0.00
2013-1-3,47.1,33.2,21.0,27.7,22.7,17.8,95,69,31,28.97,28.83,14,4,14,0.00
2013-1-4,44.2,36.0,28.2,31.8,26.8,21.4,84,70,50,28.95,28.77,20,5,20,0.00
2013-1-5,55.2,41.0,31.8,32.7,26.8,7.9,87,62,15,28.85,28.65,18,8,18,0.00
2013-1-6,57.2,40.1,27.1,31.8,24.7,19.6,87,58,24,28.92,28.79,11,4,11,0.00
2013-1-7,51.3,39.3,27.3,29.1,24.9,19.8,83,58,35,28.79,28.55,15,5,15,0.00
2013-1-8,52.2,43.5,33.3,42.4,36.0,27.7,90,75,57,28.66,28.50,12,5,12,0.00
2013-1-9,46.4,43.7,40.1,46.0,41.0,34.3,99,91,74,28.78,28.53,33,12,33,0.22
2013-1-10,54.5,48.2,44.8,51.1,47.6,44.6,99,98,86,28.53,28.32,23,7,23,0.39
2013-1-11,69.1,53.2,41.4,51.6,45.4,35.1,99,77,50,28.35,28.16,25,8,25,0.00
2013-1-12,49.5,38.0,26.1,35.4,23.4,13.1,78,56,41,28.60,28.34,29,12,29,0.00
2013-1-13,36.0,27.2,21.4,21.0,12.8,8.4,79,56,33,28.82,28.59,22,9,22,0.00
2013-1-14,36.9,27.4,20.1,15.4,12.1,7.0,75,54,30,28.86,28.73,21,8,21,0.00
2013-1-15,39.4,30.4,23.5,17.4,14.0,8.2,73,52,30,28.78,28.69,13,5,13,0.00
2013-1-16,54.1,34.4,18.5,31.1,22.6,14.2,91,66,31,28.76,28.61,17,4,17,0.00
2013-1-17,59.2,43.9,32.2,33.4,30.0,26.6,84,61,32,29.01,28.76,14,4,14,0.00
2013-1-18,63.1,45.7,28.4,34.7,30.4,24.4,89,59,29,28.96,28.65,22,7,22,0.00
2013-1-19,66.0,48.3,35.2,37.2,33.1,29.7,81,58,27,28.72,28.58,10,3,10,0.00
2013-1-20,66.9,47.6,31.1,35.4,30.4,25.3,81,56,21,28.72,28.57,23,5,23,0.00
2013-1-21,46.9,36.2,25.7,29.8,15.1,6.6,62,43,24,28.90,28.70,28,8,28,0.00
2013-1-22,64.2,43.9,26.2,39.9,28.3,18.0,78,57,31,28.75,28.61,17,5,17,0.00
2013-1-23,68.7,51.2,34.7,48.9,42.0,33.6,98,73,37,28.71,28.58,15,4,15,0.00
2013-1-24,50.9,39.6,33.6,47.1,33.8,28.0,99,80,69,28.73,28.58,23,8,23,0.00
2013-1-25,54.0,40.1,27.7,31.3,28.7,25.0,91,66,39,28.73,28.59,15,6,15,0.00
2013-1-26,56.3,43.3,29.3,45.9,34.4,25.3,95,72,50,28.71,28.49,19,6,19,0.00
2013-1-27,77.9,62.0,47.7,57.6,52.8,45.7,99,76,41,28.50,28.27,23,11,23,0.00
2013-1-28,79.7,64.4,50.2,62.8,52.1,46.2,93,67,35,28.42,28.21,29,9,29,0.00
2013-1-29,67.5,56.3,38.3,62.4,41.7,26.2,92,62,23,28.26,28.04,48,12,48,1.29
2013-1-30,50.7,40.7,32.5,32.2,18.6,-2.4,76,46,12,28.59,28.26,30,12,30,0.00
2013-1-31,68.2,41.3,27.5,68.0,20.6,8.2,77,46,10,28.84,28.53,32,8,32,0.00
2013-2-1,52.5,35.7,20.1,28.8,19.1,13.3,79,53,29,28.88,28.59,17,6,19,0.00
2013-2-2,65.7,47.9,31.1,34.9,26.0,14.4,78,48,15,28.82,28.60,16,5,16,0.00
2013-2-3,68.2,50.9,29.8,68.0,26.6,7.5,73,36,10,28.82,28.39,27,6,27,0.00
2013-2-4,68.9,57.0,39.7,46.4,29.9,9.7,72,40,10,28.47,28.30,22,7,22,0.00
2013-2-5,70.2,51.1,30.9,53.6,33.5,20.8,99,58,16,28.53,28.42,17,5,17,0.00
2013-2-6,74.5,59.6,50.2,57.0,52.7,49.3,99,82,43,28.52,28.27,23,7,23,0.00
2013-2-7,62.1,54.1,39.9,59.0,44.4,24.6,99,73,30,28.71,28.25,30,10,30,0.02
2013-2-8,60.3,45.2,31.8,60.3,23.1,0.5,81,47,10,28.79,28.57,14,5,14,0.00
2013-2-9,55.4,47.3,40.8,54.7,42.7,26.4,99,85,54,28.58,28.11,30,14,30,0.00
2013-2-10,63.5,50.8,39.0,63.3,24.8,4.6,84,35,10,28.54,28.21,25,9,25,0.00
2013-2-11,56.1,44.2,33.6,28.9,24.4,18.9,70,47,24,28.70,28.53,19,8,19,0.00
2013-2-12,42.1,36.2,31.8,36.5,33.7,27.7,99,91,59,28.60,28.44,27,9,27,0.70
2013-2-13,58.6,40.0,27.0,35.6,30.9,26.1,99,75,30,28.61,28.47,11,4,11,0.01
2013-2-14,63.3,46.2,30.7,39.6,33.3,28.6,94,65,29,28.72,28.49,30,8,30,0.00
2013-2-15,46.9,39.4,33.1,35.6,24.9,18.7,82,57,35,28.92,28.72,27,7,27,0.00
2013-2-16,59.4,41.0,27.5,36.5,30.0,23.9,99,70,28,28.88,28.56,16,5,16,0.00
2013-2-17,73.6,52.4,32.9,73.6,31.9,10.9,80,41,10,28.57,28.21,30,10,30,0.00
2013-2-18,59.7,51.4,41.4,46.0,31.0,19.2,86,49,21,28.65,28.14,27,11,27,0.00
2013-2-19,55.9,42.4,27.3,30.0,24.1,16.7,85,51,22,28.79,28.60,19,7,19,0.00
2013-2-20,48.6,39.9,34.5,40.5,37.6,23.2,99,93,37,28.61,28.20,36,16,36,0.27
2013-2-21,46.6,35.4,25.7,40.8,32.5,20.5,99,89,76,28.53,28.17,26,10,26,0.28
2013-2-22,43.0,31.4,21.2,26.8,21.5,17.2,87,68,48,28.65,28.51,15,6,15,0.00
2013-2-23,50.4,36.1,25.7,33.8,28.9,22.5,96,77,51,28.59,28.33,18,6,18,0.01
2013-2-24,67.5,47.1,32.2,44.8,37.3,29.8,99,72,39,28.33,28.08,28,12,28,0.34
2013-2-25,42.6,36.3,32.4,42.4,35.8,30.9,99,98,89,28.30,28.01,36,16,36,1.07
2013-2-26,49.5,37.4,28.2,34.9,30.2,25.5,91,76,52,28.43,28.29,23,8,23,0.08
2013-2-27,50.0,39.1,29.1,35.6,29.2,23.4,92,69,39,28.77,28.43,27,9,27,0.00
2013-2-28,54.9,39.7,24.6,32.7,26.2,17.2,97,64,23,28.79,28.70,19,6,19,0.00
2013-3-1,53.6,39.8,30.2,34.9,29.7,25.0,89,69,42,28.87,28.70,27,6,27,0.00
2013-3-2,32.4,29.2,25.7,28.9,27.1,23.4,95,92,87,28.89,28.85,7,3,7,0.00
2013-3-4,74.8,62.4,44.1,43.0,38.1,32.4,70,44,23,28.61,28.12,37,15,37,0.58
2013-3-5,55.0,44.3,34.0,54.7,16.1,-1.5,66,35,10,28.92,28.60,32,10,32,0.69
2013-3-6,55.2,41.7,27.5,25.9,22.2,17.2,73,48,27,28.91,28.61,17,7,17,0.00
2013-3-7,72.9,54.6,37.9,41.2,25.2,13.1,60,36,14,28.62,28.47,23,11,23,0.00
2013-3-8,62.6,57.6,51.3,59.0,52.5,41.0,91,83,61,28.54,28.33,24,12,24,0.00
2013-3-9,71.6,61.9,50.4,62.2,46.4,21.9,99,65,19,28.34,28.14,42,11,42,0.12
2013-3-10,50.4,42.7,30.6,38.5,27.6,16.2,75,57,29,28.62,28.27,33,15,33,0.02
2013-3-11,66.7,43.1,24.1,31.3,24.5,17.4,81,53,20,28.61,28.42,17,6,17,0.00
2013-3-12,60.1,49.7,39.4,38.5,32.2,26.2,73,52,38,28.84,28.45,29,10,29,0.00
2013-3-13,69.3,51.7,31.8,40.1,34.4,28.4,90,57,23,28.92,28.74,18,5,18,0.00
2013-3-14,75.0,53.7,41.4,45.7,38.7,36.0,83,61,27,28.76,28.65,14,7,14,0.00
2013-3-15,71.6,68.3,65.8,40.5,38.3,36.7,39,33,28,28.27,28.25,15,8,15,0.00
2013-3-16,77.0,63.8,50.2,51.3,44.0,37.9,65,49,35,28.32,28.21,25,10,25,0.00
2013-3-17,61.2,48.9,38.5,42.8,37.5,32.5,79,65,47,28.40,28.15,28,9,28,0.00
2013-3-18,64.9,52.3,41.0,42.3,33.5,20.1,96,56,19,28.51,28.13,27,8,27,0.00
2013-3-19,59.9,51.3,40.1,42.4,35.8,25.5,78,56,44,28.70,28.47,22,8,22,0.00
2013-3-20,64.6,51.8,34.9,41.2,29.8,17.4,86,49,18,28.84,28.46,16,6,16,0.00
2013-3-21,84.0,60.8,47.8,52.3,38.2,26.1,76,45,16,28.46,27.92,24,12,24,0.00
2013-3-22,49.8,43.9,38.5,42.8,37.5,35.4,95,79,62,28.43,28.07,30,12,30,0.00
2013-3-23,50.2,43.8,35.8,44.2,40.5,30.7,98,88,80,28.51,28.18,23,8,23,0.01
2013-3-24,48.7,37.8,29.1,30.6,18.4,4.6,82,51,17,28.73,28.49,27,13,27,0.01
2013-3-25,51.3,37.8,25.0,22.8,13.6,5.2,76,42,16,28.90,28.72,21,7,21,0.00
2013-3-26,61.2,42.2,21.7,21.4,14.5,3.4,74,38,10,28.93,28.65,22,7,22,0.00
2013-3-27,77.2,56.6,40.1,42.3,29.8,21.4,56,39,17,28.66,28.45,27,12,27,0.00
2013-3-28,78.8,63.3,49.5,53.2,47.2,41.5,82,58,34,28.59,28.46,23,10,23,0.00
2013-3-29,78.6,64.7,54.5,60.6,56.3,49.8,98,76,48,28.58,28.43,21,10,21,0.00
2013-3-30,83.8,67.7,53.6,60.4,56.9,52.9,99,72,36,28.49,28.35,15,6,15,0.00
2013-3-31,72.7,63.5,53.2,60.4,47.8,38.3,93,60,30,28.58,28.36,43,10,43,0.48
2013-4-1,79.2,58.9,43.5,50.5,44.2,39.2,87,62,28,28.58,28.44,28,8,28,0.04
2013-4-2,43.9,39.9,37.6,40.5,37.8,34.0,99,92,77,28.65,28.54,32,14,32,0.07
2013-4-3,41.0,38.4,36.9,40.3,38.0,36.5,99,98,94,28.73,28.60,16,8,16,3.21
2013-4-4,51.3,41.2,35.2,41.2,37.7,34.9,99,88,67,28.74,28.64,11,5,11,3.27
2013-4-5,39.6,37.9,35.6,37.6,36.4,34.3,95,94,93,28.71,28.68,5,2,5,0.00
2013-4-7,76.1,69.1,64.6,63.0,62.4,61.9,92,80,62,28.14,28.09,22,14,22,0.00
2013-4-8,88.9,72.7,62.6,64.6,62.5,56.1,96,74,35,28.14,28.00,32,13,32,0.04
2013-4-9,82.8,59.9,32.9,64.9,51.6,28.4,99,76,42,28.49,28.06,34,15,34,0.39
2013-4-10,48.9,37.7,28.0,33.1,29.0,24.8,97,73,41,28.59,28.36,30,5,30,0.66
2013-4-11,63.0,44.8,28.8,39.7,28.6,21.9,87,57,25,28.52,28.26,16,5,16,0.66
2013-4-12,68.7,53.7,40.3,46.2,40.3,35.2,87,63,35,28.51,28.35,17,6,17,0.00
2013-4-13,77.0,62.1,48.4,50.4,43.2,31.8,81,54,20,28.44,28.17,22,11,22,0.00
2013-4-14,91.2,70.7,52.9,91.0,51.4,23.7,87,49,10,28.20,27.94,24,10,24,0.00
2013-4-15,79.0,65.6,55.6,54.7,43.5,33.3,69,46,32,28.26,28.05,30,12,30,0.06
2013-4-16,59.7,53.3,49.3,49.8,45.7,41.2,99,76,61,28.46,28.22,28,11,28,0.00
2013-4-17,79.5,59.1,46.2,71.2,57.7,45.7,99,96,65,28.35,28.03,27,7,27,0.09
2013-4-18,54.0,44.4,35.8,45.5,30.8,21.7,99,62,31,28.69,28.23,30,14,30,0.24
2013-4-19,69.6,49.1,28.4,69.3,31.4,6.8,81,41,10,28.76,28.54,25,6,25,0.00
2013-4-20,73.6,58.2,41.7,34.5,27.0,13.3,69,36,10,28.58,28.38,30,12,30,0.04
2013-4-21,73.9,60.7,47.3,51.8,44.4,32.7,82,57,38,28.61,28.48,21,11,21,0.00
2013-4-22,86.0,66.8,51.4,59.2,53.7,48.4,90,67,32,28.55,28.17,25,12,25,0.00
2013-4-23,68.9,41.0,36.1,58.5,34.1,25.9,94,77,65,28.80,28.25,28,14,28,0.19
2013-4-24,62.6,46.0,27.3,33.3,26.5,20.1,95,54,20,28.84,28.70,12,4,18,0.00
2013-4-25,70.3,56.3,36.3,40.5,29.9,12.7,77,42,12,28.82,28.57,19,6,19,0.00
2013-4-26,83.1,66.9,58.5,63.0,52.3,40.1,89,61,41,28.59,28.35,26,11,26,0.02
2013-4-27,80.4,65.4,54.1,56.8,49.7,31.1,95,63,18,28.67,28.50,21,8,21,0.00
2013-4-28,90.9,70.5,50.7,90.7,54.6,23.7,97,50,10,28.53,28.26,19,6,19,0.00
2013-4-29,93.4,76.4,59.4,93.2,60.6,23.7,93,43,10,28.35,28.17,30,11,30,0.00
2013-4-30,91.4,76.5,60.8,61.2,56.4,43.0,90,56,20,28.26,28.12,27,12,27,0.00
2013-5-1,85.3,67.5,44.1,64.8,55.8,37.4,93,68,40,28.69,28.20,32,13,32,0.21
2013-5-2,55.2,44.9,37.8,38.1,33.0,23.7,94,66,31,28.96,28.69,32,16,32,2.19
2013-5-3,72.1,51.6,28.8,72.1,35.8,5.5,87,39,10,28.92,28.49,27,6,27,0.00
2013-5-4,73.0,56.4,39.2,73.0,39.9,5.9,72,34,10,28.60,28.44,27,8,27,0.00
2013-5-5,72.9,55.6,37.9,47.7,42.2,34.5,89,64,34,28.72,28.55,14,4,14,0.00
2013-5-6,78.1,63.8,47.3,49.8,45.8,39.6,93,57,27,28.65,28.49,13,1,13,0.00
2013-5-7,86.9,72.8,57.6,51.4,43.9,31.3,76,41,14,28.58,28.35,22,8,22,0.00
2013-5-8,88.0,74.7,59.7,63.7,55.8,47.3,76,53,38,28.42,28.25,24,10,24,0.00
2013-5-9,83.5,69.4,61.2,64.8,61.4,55.0,98,78,42,28.47,28.32,21,4,21,0.28
2013-5-10,75.0,65.2,56.5,61.3,55.1,49.8,99,72,45,28.64,28.39,30,6,30,1.72
2013-5-11,83.5,67.0,53.8,57.4,48.8,30.2,95,59,15,28.76,28.63,22,6,22,0.00
2013-5-12,83.1,67.3,46.6,47.1,39.7,18.0,86,43,13,28.79,28.55,19,6,19,0.00
2013-5-13,93.4,76.3,57.2,93.2,51.5,23.2,69,31,10,28.66,28.51,27,9,27,0.00
2013-5-14,91.8,77.9,61.7,55.9,45.9,34.2,58,35,14,28.59,28.35,25,10,25,0.00
2013-5-15,84.6,72.5,64.9,68.4,59.9,48.6,97,67,38,28.44,28.23,22,6,22,0.06
2013-5-16,83.1,69.4,61.0,68.0,62.3,59.4,99,81,46,28.35,28.26,17,6,17,0.00
2013-5-17,90.7,74.5,64.2,74.5,69.4,62.4,99,86,56,28.37,28.24,17,6,17,0.00
2013-5-18,101.5,80.6,68.2,94.3,67.0,29.3,99,71,15,28.32,28.09,24,9,24,0.06
2013-5-19,99.5,85.3,71.6,99.1,74.9,20.3,84,35,10,28.20,28.05,30,13,30,0.28
2013-5-20,97.2,80.1,63.5,97.2,55.4,26.6,72,32,10,28.27,28.09,27,6,27,0.00
2013-5-21,80.1,69.6,57.2,64.8,50.6,39.2,86,54,25,28.50,28.25,43,8,43,3.60
2013-5-22,91.0,73.7,55.2,56.7,46.6,26.2,93,49,11,28.45,28.29,21,5,21,0.00
2013-5-23,89.6,75.7,65.1,68.9,62.5,49.6,87,66,27,28.56,28.37,27,12,27,0.00
2013-5-24,91.8,77.1,64.9,70.7,65.5,59.2,95,71,37,28.62,28.49,25,8,25,0.00
2013-5-25,88.3,74.8,63.9,68.9,64.0,60.3,92,71,41,28.64,28.43,23,8,23,0.00
2013-5-26,94.6,81.8,69.1,69.8,65.7,59.5,94,63,32,28.53,28.31,23,9,23,0.00
2013-5-27,97.9,83.8,72.1,68.5,65.5,55.6,83,57,29,28.37,28.14,30,12,30,0.06
2013-5-28,83.3,78.3,72.1,71.6,67.3,64.2,85,69,58,28.28,28.16,24,7,24,0.06
2013-5-29,87.3,78.5,72.1,70.7,67.3,62.4,89,70,45,28.26,28.01,27,12,27,0.11
2013-5-30,100.4,85.4,74.5,99.9,75.1,23.2,85,46,11,28.20,28.07,27,11,27,0.00
2013-5-31,105.3,88.5,72.5,99.9,67.5,34.3,76,44,10,28.25,28.01,25,10,25,0.00
2013-6-1,89.8,78.6,69.4,68.7,45.9,23.7,85,39,10,28.57,28.11,27,10,27,0.04
2013-6-2,86.9,72.6,59.0,54.3,48.1,36.5,80,46,18,28.66,28.44,18,3,18,0.00
2013-6-3,96.3,78.8,63.0,56.7,52.1,46.9,74,44,19,28.51,28.24,21,9,23,0.00
2013-6-4,99.1,81.8,65.5,70.9,64.4,55.2,99,60,27,28.42,28.22,27,10,27,0.15
2013-6-5,91.2,79.4,69.3,69.6,65.4,59.5,84,64,43,28.50,28.26,28,9,28,0.00
2013-6-6,83.5,72.6,63.9,65.8,59.3,52.3,99,66,38,28.52,28.42,22,7,22,0.14
2013-6-7,87.1,73.0,61.2,57.6,55.4,51.6,84,57,30,28.55,28.40,15,3,15,0.00
2013-6-8,92.5,77.2,64.2,63.1,54.8,41.2,96,50,19,28.47,28.21,34,9,34,0.60
2013-6-9,96.3,78.3,61.5,95.0,57.6,29.1,99,60,11,28.49,28.35,30,3,30,0.84
2013-6-10,102.2,85.7,68.2,99.9,59.9,33.8,87,44,10,28.47,28.33,22,7,22,0.00
2013-6-11,100.0,87.4,70.3,63.1,54.4,39.2,58,35,13,28.48,28.34,24,8,24,0.00
2013-6-12,100.4,87.9,74.3,67.8,61.8,52.7,76,45,21,28.51,28.37,27,9,27,0.00
2013-6-13,102.2,89.1,74.8,68.2,62.3,52.5,74,45,20,28.55,28.38,17,5,17,0.00
2013-6-14,96.3,85.0,73.8,68.2,61.4,49.6,77,48,21,28.50,28.41,21,6,21,0.00
2013-6-15,91.2,80.5,71.2,69.8,64.6,59.2,90,60,35,28.56,28.38,25,6,25,0.05
2013-6-16,99.1,85.8,70.9,73.0,66.1,60.4,94,56,30,28.53,28.33,21,5,21,0.00
2013-6-17,91.4,80.8,66.4,70.2,66.3,59.0,99,65,35,28.54,28.35,30,5,30,0.60
2013-6-18,92.1,80.2,70.3,70.2,65.4,58.5,94,64,35,28.57,28.43,13,3,13,0.00
2013-6-19,86.9,75.5,69.6,72.9,67.1,59.9,99,78,42,28.57,28.33,34,5,34,1.83
2013-6-20,98.1,84.1,69.1,71.4,66.1,56.8,89,59,29,28.48,28.35,24,9,24,0.00
2013-6-21,98.1,87.0,75.9,70.3,65.4,57.4,74,51,29,28.51,28.38,25,9,25,0.00
2013-6-22,98.1,87.6,74.5,65.3,61.2,54.5,65,43,26,28.47,28.30,29,10,29,0.00
2013-6-23,100.2,87.7,76.6,66.4,55.8,39.9,65,38,13,28.40,28.29,27,10,27,0.00
2013-6-24,98.6,87.0,74.8,65.7,59.9,50.0,62,42,21,28.47,28.30,27,10,27,0.00
2013-6-25,102.7,89.5,78.1,70.5,65.3,57.6,66,47,27,28.41,28.22,27,10,27,0.00
2013-6-26,106.0,92.9,79.0,66.0,62.1,55.6,60,38,21,28.40,28.28,18,7,18,0.00
2013-6-27,108.9,93.3,77.5,99.9,62.1,37.4,73,38,10,28.56,28.33,31,6,31,0.39
2013-6-28,104.5,90.7,77.2,63.5,55.3,42.8,60,34,14,28.54,28.40,18,4,22,0.39
2013-6-29,101.1,88.0,77.2,63.1,54.6,45.9,59,35,16,28.53,28.35,15,2,15,0.00
2013-6-30,95.0,83.4,73.4,58.5,50.8,39.6,56,35,16,28.53,28.42,21,5,21,0.00
2013-7-1,88.2,76.9,65.1,54.1,47.6,38.3,66,39,19,28.66,28.53,20,4,20,0.00
2013-7-2,93.0,77.4,57.6,92.8,49.7,23.7,61,27,10,28.68,28.51,15,2,15,0.00
2013-7-3,94.1,79.1,63.3,93.6,40.7,26.1,59,29,10,28.61,28.42,14,2,14,0.00
2013-7-4,98.8,81.8,66.4,98.6,47.1,29.5,68,33,10,28.53,28.35,25,5,25,0.01
2013-7-5,101.5,86.0,68.7,99.9,59.1,29.5,73,31,10,28.48,28.30,19,8,19,0.00
2013-7-6,101.3,87.2,74.7,58.8,50.3,33.3,54,32,11,28.44,28.32,179,9,179,0.00
2013-7-7,101.5,88.3,74.1,61.3,55.0,47.8,60,35,17,28.50,28.40,22,6,22,0.00
2013-7-8,103.8,89.6,74.5,67.3,59.5,50.4,69,40,18,28.56,28.43,18,5,18,0.00
2013-7-9,104.2,91.8,78.1,66.6,59.3,50.9,64,37,18,28.57,28.42,18,6,18,0.00
2013-7-10,104.4,92.5,78.8,60.6,56.2,48.0,52,32,16,28.56,28.40,24,4,24,0.00
2013-7-11,107.6,89.9,80.4,69.1,60.4,43.3,63,41,13,28.49,28.38,21,3,21,0.09
2013-7-12,106.5,91.2,77.0,69.6,60.8,43.3,75,42,13,28.48,28.36,18,5,18,0.00
2013-7-13,108.0,92.7,77.7,99.9,60.7,35.1,70,34,10,28.51,28.35,16,5,16,0.00
2013-7-14,88.2,75.2,64.4,65.8,62.2,54.9,99,67,44,28.58,28.40,26,8,26,0.25
2013-7-15,79.7,69.5,64.8,68.7,65.3,61.9,99,87,62,28.62,28.53,15,3,15,0.06
2013-7-16,76.3,70.5,67.5,75.6,70.1,67.1,99,99,95,28.74,28.58,17,3,17,1.18
2013-7-17,87.1,75.9,68.5,75.0,71.4,68.2,99,87,59,28.79,28.67,16,2,16,0.11
2013-7-18,92.7,80.7,69.6,73.4,68.8,64.2,99,70,42,28.72,28.53,17,3,17,0.00
2013-7-19,95.9,83.3,70.7,72.0,66.6,60.4,94,61,35,28.58,28.41,20,4,20,0.00
2013-7-20,98.8,85.6,72.0,71.2,64.9,53.4,95,55,23,28.48,28.33,17,5,17,0.00
2013-7-21,99.3,87.3,73.8,71.4,64.4,53.4,87,51,23,28.42,28.30,21,6,21,0.00
2013-7-22,98.8,87.7,75.0,71.2,68.5,63.3,84,55,35,28.44,28.32,23,7,23,0.00
2013-7-23,100.4,89.6,77.7,72.3,69.5,64.8,79,54,33,28.44,28.30,19,6,19,0.00
2013-7-24,98.6,86.7,75.2,72.5,68.8,64.2,82,58,35,28.52,28.34,30,6,30,0.01
2013-7-25,88.0,79.7,71.1,75.7,72.2,68.5,99,79,57,28.62,28.48,17,4,17,0.19
2013-7-26,91.6,80.9,73.2,76.6,71.1,63.9,99,74,41,28.60,28.43,21,5,21,0.07
2013-7-27,93.9,81.1,67.5,72.5,65.5,55.8,99,64,30,28.61,28.41,17,3,17,0.00
2013-7-28,94.1,81.6,68.5,68.5,62.3,44.6,95,58,21,28.50,28.36,17,6,17,0.00
2013-7-29,97.5,86.3,74.8,73.4,69.9,64.4,88,60,42,28.44,28.33,23,8,23,0.00
2013-7-30,99.9,87.7,76.5,74.3,68.5,64.8,76,55,34,28.55,28.39,17,5,17,0.00
2013-7-31,86.2,79.5,76.3,74.7,73.5,70.3,93,82,60,30.12,28.53,18,4,18,0.00
2013-8-1,95.7,84.2,75.9,71.1,68.4,61.1,84,62,32,30.14,29.99,17,3,17,0.00
2013-8-2,106.7,95.6,78.8,74.0,57.9,46.8,84,35,14,29.96,28.30,18,8,18,0.00
2013-8-3,106.7,92.5,77.9,68.7,57.4,39.9,60,34,11,28.49,28.36,19,6,19,0.00
2013-8-4,104.0,91.3,77.9,66.0,59.3,47.3,65,38,16,28.56,28.39,17,6,17,0.00
2013-8-5,106.3,92.4,77.5,67.3,58.8,44.6,69,37,14,28.49,28.29,23,7,23,0.00
2013-8-6,108.9,94.0,77.2,62.4,54.0,39.7,60,30,10,28.38,28.22,20,6,20,0.00
2013-8-7,100.8,88.4,71.8,71.6,64.1,56.5,92,46,26,28.42,28.27,35,4,35,1.09
2013-8-8,102.4,81.8,71.2,72.7,69.3,59.5,96,71,26,28.43,28.28,17,4,17,1.17
2013-8-9,92.3,80.0,69.1,72.1,68.3,64.0,99,71,41,28.60,28.41,17,4,17,0.09
2013-8-10,91.6,79.5,70.3,71.2,66.9,62.8,94,68,41,28.69,28.54,12,3,12,0.00
2013-8-11,100.9,82.8,70.3,73.4,67.5,62.6,99,64,30,28.64,28.47,26,3,26,0.12
2013-8-12,98.1,82.3,73.0,76.1,71.4,61.9,99,74,33,28.62,28.43,21,5,26,0.46
2013-8-13,90.9,79.7,72.3,76.1,71.1,67.6,97,77,49,28.58,28.46,12,3,12,0.13
2013-8-14,90.7,79.6,69.6,72.9,68.8,64.0,99,72,44,28.64,28.49,13,3,13,0.00
2013-8-15,93.7,79.6,70.0,72.9,67.9,20.8,92,69,42,28.58,28.45,17,4,17,0.00
2013-8-16,93.6,77.9,64.8,68.7,65.0,61.0,94,68,35,28.60,28.46,14,3,14,0.11
2013-8-17,90.9,78.1,67.1,67.1,64.3,60.6,91,65,39,28.65,28.51,16,4,16,0.00
2013-8-18,94.1,80.2,67.5,64.6,61.0,52.0,87,56,26,28.62,28.48,17,6,17,0.00
2013-8-19,95.9,82.5,69.1,63.5,59.7,55.2,78,50,27,28.57,28.44,20,6,20,0.00
2013-8-20,99.9,85.4,71.8,62.4,59.3,55.0,68,45,23,28.54,28.43,17,6,17,0.00
2013-8-21,99.0,84.7,70.5,61.3,55.4,44.8,68,40,17,28.60,28.48,18,4,18,0.00
2013-8-22,101.5,87.3,72.3,67.5,59.2,45.1,75,43,16,28.60,28.42,17,4,17,0.00
2013-8-23,104.0,88.2,74.1,68.0,60.8,42.6,74,45,14,28.56,28.41,23,4,23,0.00
2013-8-24,103.5,87.5,74.7,69.8,63.8,52.5,79,50,19,28.61,28.49,18,4,18,0.00
2013-8-25,101.7,87.5,74.3,69.1,63.5,53.8,78,49,23,28.67,28.56,19,4,19,0.00
2013-8-26,98.1,85.6,72.5,66.9,62.2,55.2,75,48,28,28.70,28.56,15,4,15,0.00
2013-8-27,95.4,82.4,70.3,69.6,64.3,59.9,75,56,34,28.63,28.50,19,4,19,0.00
2013-8-28,99.1,85.6,73.0,70.5,63.9,54.7,88,53,25,28.60,28.49,17,5,17,0.00
2013-8-29,101.3,86.3,73.8,61.5,55.7,43.0,64,40,15,28.60,28.46,17,3,17,0.00
2013-8-30,107.1,91.2,75.6,63.7,54.5,42.4,66,33,12,28.53,28.37,22,4,22,0.00
2013-8-31,108.1,92.1,74.5,99.9,58.0,36.1,55,26,10,28.44,28.29,15,3,15,0.00
2013-9-1,105.8,88.1,76.1,66.6,58.3,27.0,57,39,16,28.46,28.32,19,4,19,0.00
2013-9-2,99.5,85.0,73.8,73.0,62.4,48.6,87,51,20,28.57,28.42,16,4,16,0.00
2013-9-3,100.2,82.7,63.5,61.9,51.5,35.2,75,40,12,28.60,28.45,12,2,12,0.00
2013-9-4,86.2,72.8,66.6,62.8,57.9,53.6,72,60,44,28.63,28.52,8,1,8,0.00
2013-9-5,102.0,94.1,82.4,66.9,54.7,46.2,58,28,16,28.64,28.51,15,3,15,0.00
2013-9-6,104.4,88.1,73.4,63.5,57.7,46.6,63,39,16,28.61,28.45,15,3,15,0.00
2013-9-7,105.3,88.4,73.9,65.1,57.9,43.5,68,41,14,28.54,28.39,26,3,26,0.00
2013-9-8,101.1,86.9,73.2,65.8,57.2,42.1,71,42,14,28.50,28.36,17,4,17,0.00
2013-9-9,97.0,85.2,72.5,65.5,59.4,51.4,72,45,23,28.50,28.37,19,5,19,0.00
2013-9-10,95.2,83.4,72.3,68.4,63.7,58.1,80,53,31,28.60,28.46,20,6,20,0.00
2013-9-11,95.9,83.4,72.7,69.1,61.8,49.5,79,52,22,28.65,28.51,17,3,17,0.00
2013-9-12,100.0,85.0,71.1,65.1,58.6,48.2,73,45,19,28.63,28.46,11,2,11,0.00
2013-9-13,87.8,78.1,73.2,70.7,68.1,62.4,84,72,51,28.56,28.43,17,4,17,0.00
2013-9-14,93.9,79.5,72.3,69.8,66.5,63.7,85,66,39,28.53,28.39,14,3,14,0.01
2013-9-15,97.0,83.8,70.5,67.8,61.5,56.5,76,50,27,28.54,28.44,15,6,21,0.00
2013-9-16,95.0,78.7,67.8,71.4,67.2,61.9,99,72,36,28.64,28.50,20,4,20,1.02
2013-9-17,89.1,75.1,68.2,74.1,71.0,67.6,99,89,54,28.63,28.48,19,2,19,0.30
2013-9-18,94.3,82.6,73.4,71.4,64.5,51.8,86,59,25,28.51,28.35,25,6,25,0.00
2013-9-19,88.2,76.6,71.1,71.1,65.9,58.3,92,71,48,28.54,28.37,17,5,17,0.00
2013-9-20,72.5,67.8,59.7,69.4,61.8,54.1,99,82,55,28.57,28.41,18,5,18,0.09
2013-9-21,86.0,68.9,54.3,58.6,50.1,39.4,94,59,20,28.59,28.42,11,1,11,0.00
2013-9-22,87.6,72.2,56.8,52.5,47.4,36.9,80,47,18,28.46,28.30,14,3,14,0.00
2013-9-23,89.8,73.1,57.2,55.2,50.4,44.8,83,49,22,28.37,28.22,20,6,20,0.00
2013-9-24,91.0,77.3,68.5,54.7,44.0,28.4,61,35,11,28.44,28.37,12,2,12,0.00
2013-9-25,95.2,77.8,60.1,58.3,49.5,37.6,70,42,15,28.43,28.22,17,4,17,0.00
2013-9-26,95.9,81.4,68.5,62.4,56.9,45.3,75,47,19,28.35,28.25,24,7,24,0.00
2013-9-27,91.4,79.3,66.9,71.2,63.5,53.6,77,60,43,28.40,28.25,20,8,20,0.00
2013-9-28,79.3,69.8,57.7,74.1,55.6,39.6,99,65,27,28.65,28.30,25,7,25,0.50
2013-9-29,83.1,66.1,52.7,55.4,46.4,28.6,89,57,15,28.65,28.43,9,2,9,0.00
2013-9-30,90.0,72.1,56.3,55.2,51.5,47.5,80,52,24,28.45,28.26,17,6,17,0.00
2013-10-1,92.3,75.4,60.4,64.8,58.3,53.4,87,58,29,28.41,28.31,19,8,19,0.00
2013-10-2,90.3,77.8,67.1,71.4,65.7,59.7,93,68,45,28.44,28.30,18,7,18,0.00
2013-10-3,93.6,80.4,69.3,72.5,67.6,62.4,99,69,36,28.36,28.20,20,8,22,0.00
2013-10-4,92.5,81.2,61.9,68.7,66.4,53.1,87,62,41,28.42,28.19,29,9,29,0.13
2013-10-5,71.8,60.4,51.3,52.9,35.0,24.3,71,41,18,28.67,28.42,27,8,29,0.13
2013-10-6,81.1,61.5,43.2,81.1,36.4,18.0,77,39,10,28.70,28.56,20,4,20,0.00
2013-10-7,84.4,66.8,50.4,46.8,39.7,29.1,81,42,14,28.70,28.56,10,1,10,0.00
2013-10-8,87.8,68.9,51.8,44.2,37.1,24.3,64,36,11,28.59,28.42,17,5,17,0.00
2013-10-9,84.4,69.4,53.4,50.5,45.3,39.2,78,46,22,28.53,28.40,20,8,20,0.00
2013-10-10,86.9,72.7,58.5,62.2,56.7,50.2,84,59,35,28.50,28.28,24,9,24,0.00
2013-10-11,90.0,74.9,63.1,90.0,59.4,18.5,93,40,10,28.37,28.26,26,6,26,0.00
2013-10-12,79.5,67.0,56.8,50.0,44.8,32.5,65,46,29,28.65,28.36,21,7,21,0.00
2013-10-13,74.3,66.4,57.9,68.2,59.2,48.6,98,78,65,28.77,28.61,21,5,21,0.00
2013-10-14,78.6,71.2,66.7,71.1,68.4,66.0,99,91,75,28.63,28.34,14,5,14,0.02
2013-10-15,71.2,58.9,52.3,69.8,45.5,37.8,99,63,43,28.66,28.39,26,8,26,0.02
2013-10-16,57.6,51.7,44.1,42.3,38.3,34.7,80,61,46,28.71,28.59,14,4,14,0.00
2013-10-17,77.4,56.5,37.4,45.9,40.2,32.9,91,60,22,28.61,28.44,12,2,12,0.00
2013-10-18,61.2,50.5,37.8,55.6,46.0,36.3,99,86,55,28.73,28.43,23,6,23,0.18
2013-10-19,70.2,48.9,32.4,44.6,34.2,19.9,99,67,15,28.72,28.53,19,4,19,0.01
2013-10-20,77.7,58.8,41.2,53.2,44.5,36.7,87,62,34,28.53,28.26,15,4,18,0.00
2013-10-21,67.3,57.4,47.8,51.4,41.2,31.8,86,58,29,28.66,28.36,27,8,27,0.00
2013-10-22,84.2,59.9,40.8,42.3,35.3,21.2,85,49,10,28.66,28.52,20,5,20,0.00
2013-10-23,87.6,65.4,44.4,87.4,44.4,18.0,83,39,10,28.62,28.48,24,4,24,0.00
2013-10-24,68.7,57.7,48.4,48.9,42.0,37.4,83,58,34,28.84,28.57,27,6,27,0.00
2013-10-25,70.2,54.8,41.7,50.4,42.3,34.9,80,64,42,28.91,28.67,15,4,15,0.00
2013-10-26,77.9,61.9,53.1,62.6,53.2,44.8,99,75,37,28.69,28.53,24,5,24,0.02
2013-10-27,75.4,57.6,41.5,52.5,37.5,11.7,86,55,11,28.67,28.46,11,3,11,0.00
2013-10-28,71.1,61.9,52.5,66.6,60.1,52.2,99,94,85,28.54,28.40,23,7,23,0.00
2013-10-29,69.1,68.5,68.0,66.2,65.6,64.9,93,91,89,28.47,28.43,19,11,19,0.00
2013-10-30,76.6,72.7,65.5,68.9,67.6,63.9,97,84,76,28.28,28.22,25,7,25,0.17
2013-10-31,71.8,62.0,53.4,64.9,45.1,32.5,96,58,25,28.38,28.17,30,8,30,0.30
2013-11-1,74.1,58.7,47.3,46.2,38.0,19.2,84,52,14,28.68,28.30,21,5,21,0.00
2013-11-2,69.8,54.6,39.2,35.2,29.5,19.0,74,43,15,28.85,28.65,13,3,13,0.00
2013-11-3,68.5,54.9,42.4,45.5,35.8,29.8,74,51,24,28.66,28.38,23,7,23,0.01
2013-11-4,76.3,60.7,49.5,57.4,49.1,42.8,97,68,39,28.51,28.39,20,7,20,0.02
2013-11-5,75.0,62.5,49.3,64.9,59.7,44.2,99,91,70,28.60,28.33,33,8,33,0.48
2013-11-6,60.4,48.4,41.9,44.4,36.2,31.3,86,65,34,28.88,28.59,17,4,17,0.50
2013-11-7,68.7,50.9,35.4,39.6,32.4,20.3,91,56,16,28.98,28.83,15,3,15,0.00
2013-11-8,68.4,53.8,41.5,41.9,30.9,12.6,72,48,13,28.83,28.52,27,9,27,0.00
2013-11-9,70.3,55.9,44.4,51.8,45.1,39.4,95,69,42,28.70,28.52,13,4,13,0.00
2013-11-10,67.8,55.9,49.6,56.8,52.7,49.3,99,90,67,28.83,28.70,14,2,14,0.00
2013-11-11,71.6,58.4,43.2,58.5,54.5,39.0,99,88,61,28.95,28.64,30,6,30,0.14
2013-11-12,46.2,37.2,26.1,39.0,17.9,7.7,85,49,22,29.26,28.94,27,9,27,0.17
2013-11-13,54.0,36.8,19.2,54.0,12.7,-3.3,78,42,10,29.15,28.75,15,5,15,0.00
2013-11-14,57.2,44.1,32.2,40.8,29.8,18.9,73,58,37,28.75,28.41,21,7,21,0.02
2013-11-15,70.7,54.2,35.2,48.9,37.7,31.1,88,57,27,28.45,28.22,15,5,15,0.00
2013-11-16,85.1,71.0,60.3,57.0,48.5,34.0,77,49,18,28.22,28.02,32,14,32,0.70
2013-11-17,75.6,64.1,52.5,54.7,38.1,21.0,86,45,15,28.59,28.11,21,8,21,0.00
2013-11-18,66.0,55.5,45.3,31.3,21.0,9.3,40,27,13,28.76,28.59,15,3,15,0.00
2013-11-19,67.1,57.9,51.4,41.2,36.4,31.3,56,45,34,28.66,28.39,21,9,21,0.00
2013-11-20,77.4,63.5,53.1,59.4,51.2,38.1,87,65,43,28.40,28.26,19,10,19,0.00
2013-11-21,78.3,52.6,31.3,63.0,46.4,22.5,97,80,36,28.92,28.37,30,12,30,0.30
2013-11-22,31.6,29.2,27.1,28.4,23.6,17.8,94,80,65,29.07,28.90,28,8,28,0.17
2013-11-23,37.6,34.1,31.1,26.2,21.9,12.4,76,62,41,29.11,29.00,23,4,23,0.00
2013-11-24,33.1,27.3,24.4,26.8,24.0,21.2,99,88,65,29.13,28.76,19,4,19,0.00
2013-11-25,35.2,31.4,26.8,32.9,30.3,24.8,99,96,88,28.76,28.64,11,2,11,0.05
2013-11-26,37.2,31.6,25.7,32.0,27.5,23.7,97,86,65,28.91,28.69,15,3,15,0.00
2013-11-27,46.8,37.7,27.7,25.7,24.0,22.1,89,59,39,28.91,28.73,15,4,15,0.00
2013-11-28,59.7,42.9,28.8,37.4,28.5,20.1,88,61,23,28.84,28.71,13,3,13,0.00
2013-11-29,60.8,45.1,31.1,37.6,32.2,27.1,87,64,33,28.88,28.71,21,7,21,0.00
2013-11-30,67.1,50.5,39.7,46.4,42.3,37.0,93,76,44,28.72,28.56,9,2,9,0.00
2013-12-1,66.0,50.3,41.2,46.2,42.6,39.4,99,78,45,28.59,28.40,8,2,8,0.00
2013-12-2,70.9,50.8,33.3,45.7,37.6,32.2,99,67,27,28.40,28.12,10,1,10,0.00
2013-12-3,79.7,55.1,35.8,79.7,36.8,17.4,93,56,10,28.12,27.99,18,4,18,0.00
2013-12-4,53.1,41.6,31.1,35.4,29.5,16.3,90,63,41,28.55,28.00,26,8,26,0.00
2013-12-5,31.3,23.5,18.0,19.6,11.6,4.3,94,62,41,28.76,28.54,23,11,23,0.00
2013-12-6,25.9,18.4,14.0,16.7,11.3,1.4,97,75,52,29.01,28.70,21,8,21,0.00
2013-12-7,18.7,14.1,3.7,12.2,4.6,-2.7,78,66,55,29.04,28.68,18,4,18,0.00
2013-12-8,35.2,23.5,16.2,27.1,19.7,11.7,97,85,71,28.68,28.40,23,7,23,0.00
2013-12-9,25.7,22.6,13.5,22.5,17.3,10.9,93,80,66,28.88,28.60,19,5,19,0.00
2013-12-10,39.4,23.7,8.8,28.6,18.0,6.4,93,80,60,28.87,28.64,14,3,14,0.00
2013-12-11,40.1,31.7,22.8,28.0,23.6,18.9,93,73,57,29.05,28.65,23,4,23,0.00
2013-12-12,39.0,31.1,20.8,34.9,25.6,17.8,90,80,68,29.04,28.65,10,1,10,0.01
2013-12-13,57.2,44.5,36.9,44.1,39.4,33.6,99,83,59,28.65,28.19,21,4,21,0.02
2013-12-14,50.4,38.3,28.9,35.2,27.0,19.8,87,67,30,28.78,28.31,26,6,26,0.00
2013-12-15,63.0,42.8,24.8,33.8,27.9,22.3,91,61,23,28.77,28.62,15,1,15,0.00
2013-12-16,70.9,46.3,26.2,35.1,29.7,23.5,91,58,19,28.68,28.58,4,0,4,0.00
2013-12-17,67.5,48.9,31.5,35.8,30.1,25.0,86,53,24,28.78,28.65,15,1,15,0.00
2013-12-18,69.8,50.3,32.2,44.1,35.0,27.5,85,59,25,28.73,28.33,22,4,22,0.00
2013-12-19,70.9,58.2,49.1,51.1,47.9,43.3,93,71,39,28.33,28.12,24,7,24,0.00
2013-12-20,54.7,34.3,29.3,49.8,27.9,18.0,99,78,59,28.50,28.18,22,4,22,0.01
2013-12-21,32.7,31.2,28.8,32.5,30.8,26.8,99,98,92,28.33,28.07,0,0,0,0.01
2013-12-22,37.9,30.0,25.7,31.5,26.7,23.4,95,88,74,28.81,28.32,0,0,0,0.12
2013-12-23,41.9,30.5,23.4,33.1,27.8,22.8,99,90,66,29.00,28.79,15,1,15,0.05
2013-12-24,48.9,33.2,24.1,41.0,30.8,23.7,99,91,74,28.98,28.56,14,3,14,0.00
2013-12-25,50.9,38.1,29.1,35.6,32.0,26.6,99,81,49,28.90,28.64,20,2,20,0.00
2013-12-26,57.9,38.4,23.7,34.7,26.7,16.2,96,68,20,28.89,28.74,11,1,11,0.00
2013-12-27,60.3,47.9,34.5,35.4,28.0,21.9,75,48,23,28.85,28.74,15,2,15,0.00
2013-12-28,58.5,43.4,30.6,45.3,35.3,25.9,96,75,43,28.74,28.38,21,3,21,0.00
2013-12-29,43.3,30.9,21.0,43.0,23.1,13.5,99,74,55,28.79,28.37,30,8,30,0.25
2013-12-30,48.4,30.1,16.2,23.4,18.2,12.7,89,64,35,28.84,28.68,8,0,8,0.00
2013-12-31,57.4,39.2,22.6,30.6,25.6,18.1,87,62,30,28.84,28.53,21,3,21,0.00
2014-1-1,57.7,38.2,24.8,35.1,28.7,18.7,92,71,34,28.84,28.35,27,5,27,0.00
2014-1-2,45.3,30.2,16.9,24.1,19.2,13.3,88,65,40,28.97,28.80,15,1,15,0.00